Time;durP1;ratioP1;P1;durP2;ratioP2;P2;SDS_P1;SDS_P2;PMS_P1;PMS_P2;Temp;Humidity;BMP_temperature;BMP_pressure;BME280_temperature;BME280_humidity;BME280_pressure;Samples;Min_cycle;Max_cycle;Signal;HPM_P1;HPM_P2
2022/07/16 00:02:33;;;;;;;6.40;3.60;;;;;;;-145.18;100.00;46646.72;5112761;28;20131;-71
2022/07/16 00:04:58;;;;;;;11.70;3.50;;;;;;;-145.18;100.00;46681.88;5094547;28;20110;-71
2022/07/16 00:07:24;;;;;;;5.37;2.73;;;;;;;-145.18;100.00;46679.94;5112102;28;20035;-71
2022/07/16 00:09:49;;;;;;;9.00;3.20;;;;;;;-145.18;100.00;46644.78;5112159;28;20044;-71
2022/07/16 00:12:15;;;;;;;5.53;2.70;;;;;;;-145.18;100.00;46642.81;5112128;28;20051;-71
2022/07/16 00:14:40;;;;;;;4.50;2.50;;;;;;;-145.18;100.00;46640.88;5112402;28;20035;-72
2022/07/16 00:17:05;;;;;;;7.00;2.50;;;;;;;-145.18;100.00;46677.97;5111710;28;20491;-71
2022/07/16 00:19:31;;;;;;;3.77;2.00;;;;;;;-145.18;100.00;46640.88;5112184;28;20088;-71
2022/07/16 00:21:57;;;;;;;3.73;2.33;;;;;;;-145.18;100.00;46642.81;5112164;28;20035;-72
2022/07/16 00:24:24;;;;;;;5.80;2.17;;;;;;;-145.18;100.00;46642.81;5112359;28;20040;-71
2022/07/16 00:26:50;;;;;;;6.77;2.03;;;;;;;-145.18;100.00;46646.72;5111172;28;20055;-72
2022/07/16 00:29:18;;;;;;;3.97;1.90;;;;;;;-145.18;100.00;46646.72;5108941;28;20028;-71
2022/07/16 00:31:44;;;;;;;5.43;2.17;;;;;;;-145.18;100.00;46648.69;5111311;28;20027;-71
2022/07/16 00:34:10;;;;;;;4.43;1.90;;;;;;;-145.18;100.00;46650.63;5112173;28;20039;-70
2022/07/16 00:36:37;;;;;;;6.37;2.20;;;;;;;-145.18;100.00;46648.69;5111841;28;20028;-70
2022/07/16 00:39:06;;;;;;;5.70;2.27;;;;;;;-145.18;100.00;46646.72;5093445;28;20503;-71
2022/07/16 00:41:33;;;;;;;4.80;2.27;;;;;;;-145.18;100.00;46642.81;5111521;28;20054;-71
2022/07/16 00:44:05;;;;;;;7.13;2.17;;;;;;;-145.18;100.00;46648.69;5112364;28;20383;-71
2022/07/16 00:46:30;;;;;;;9.23;2.77;;;;;;;-145.18;100.00;46642.81;5111208;28;20127;-70
2022/07/16 00:48:57;;;;;;;5.67;2.23;;;;;;;-145.18;100.00;46642.81;5111948;28;20026;-70
2022/07/16 00:51:24;;;;;;;6.73;2.50;;;;;;;-145.18;100.00;46642.81;5093092;28;20103;-71
2022/07/16 00:53:50;;;;;;;8.13;2.60;;;;;;;-145.18;100.00;46679.94;5111287;28;20032;-70
2022/07/16 00:56:16;;;;;;;7.13;2.93;;;;;;;-145.18;100.00;46642.81;5111138;28;20031;-70
2022/07/16 00:58:43;;;;;;;5.30;2.40;;;;;;;-145.18;100.00;46677.97;5111740;28;20027;-71
2022/07/16 01:01:10;;;;;;;8.30;2.70;;;;;;;-145.18;100.00;46640.88;5111210;28;20111;-71
2022/07/16 01:03:36;;;;;;;10.90;3.10;;;;;;;-145.18;100.00;46660.41;5092787;28;20059;-71
2022/07/16 01:06:02;;;;;;;5.43;2.20;;;;;;;-145.18;100.00;46677.97;5111546;28;20080;-71
2022/07/16 01:08:28;;;;;;;7.03;2.70;;;;;;;-145.18;100.00;46660.41;5111220;28;20028;-70
2022/07/16 01:10:55;;;;;;;4.47;2.50;;;;;;;-145.18;100.00;46642.81;5111507;28;20024;-71
2022/07/16 01:13:21;;;;;;;4.77;2.73;;;;;;;-145.18;100.00;46638.91;5110675;28;20032;-71
2022/07/16 01:15:47;;;;;;;3.70;2.77;;;;;;;-145.18;100.00;46677.97;5110799;28;20038;-71
2022/07/16 01:18:12;;;;;;;4.37;2.70;;;;;;;-145.18;100.00;46677.97;5110856;28;20028;-71
2022/07/16 01:20:38;;;;;;;6.13;3.00;;;;;;;-145.18;100.00;46638.91;5111459;28;20039;-71
2022/07/16 01:23:04;;;;;;;6.83;2.77;;;;;;;-145.18;100.00;46642.81;5110835;28;20040;-71
2022/07/16 01:25:30;;;;;;;7.67;3.10;;;;;;;-145.18;100.00;46642.81;5111146;28;20047;-71
2022/07/16 01:27:55;;;;;;;6.87;2.90;;;;;;;-145.18;100.00;46642.81;5110857;28;20039;-71
2022/07/16 01:30:20;;;;;;;5.40;2.90;;;;;;;-145.18;100.00;46644.78;5092619;28;20513;-71
2022/07/16 01:32:46;;;;;;;7.73;3.07;;;;;;;-145.18;100.00;46640.88;5110155;28;20028;-71
2022/07/16 01:35:11;;;;;;;3.93;2.83;;;;;;;-145.18;100.00;46644.78;5109547;28;20108;-71
2022/07/16 01:37:37;;;;;;;7.10;2.93;;;;;;;-145.18;100.00;46640.88;5110799;28;20559;-71
2022/07/16 01:40:03;;;;;;;6.60;3.60;;;;;;;-145.18;100.00;46642.81;5111416;28;20035;-71
2022/07/16 01:42:29;;;;;;;9.57;4.17;;;;;;;-145.18;100.00;46679.94;5092108;28;20118;-72
2022/07/16 01:44:54;;;;;;;5.70;3.33;;;;;;;-145.18;100.00;46677.97;5111076;28;20692;-71
2022/07/16 01:47:19;;;;;;;8.53;3.90;;;;;;;-145.18;100.00;46677.97;5110607;28;20023;-71
2022/07/16 01:49:48;;;;;;;7.30;4.00;;;;;;;-145.18;100.00;46660.41;5111091;28;20100;-71
2022/07/16 01:52:16;;;;;;;6.27;3.43;;;;;;;-145.18;100.00;46660.41;5110291;28;20391;-71
2022/07/16 01:54:52;;;;;;;9.43;3.90;;;;;;;-145.18;100.00;46679.94;5110119;28;20719;-71
2022/07/16 01:57:18;;;;;;;9.20;3.87;;;;;;;-145.18;100.00;46679.94;5110278;28;20111;-71
2022/07/16 01:59:44;;;;;;;10.27;4.13;;;;;;;-145.18;100.00;46642.81;5110808;28;20032;-71
2022/07/16 02:02:11;;;;;;;6.37;4.00;;;;;;;-145.18;100.00;46677.97;5277542;22;20052;-71
2022/07/16 02:04:37;;;;;;;14.60;5.00;;;;;;;-145.18;100.00;46660.41;5066911;28;20071;-71
2022/07/16 02:07:03;;;;;;;8.20;4.77;;;;;;;-145.18;100.00;46660.41;5069752;28;20366;-71
2022/07/16 02:09:28;;;;;;;6.03;4.40;;;;;;;-145.18;100.00;46660.41;5070066;28;20028;-71
2022/07/16 02:11:54;;;;;;;9.20;4.97;;;;;;;-145.18;100.00;46660.41;5069465;28;20293;-71
2022/07/16 02:14:20;;;;;;;13.70;5.43;;;;;;;-145.18;100.00;46660.41;5073661;28;20040;-71
2022/07/16 02:16:45;;;;;;;12.53;6.07;;;;;;;-145.18;100.00;46660.41;5074464;28;20136;-71
2022/07/16 02:19:10;;;;;;;6.70;4.87;;;;;;;-145.18;100.00;46660.41;5074314;28;20032;-71
2022/07/16 02:21:36;;;;;;;8.50;5.30;;;;;;;-145.18;100.00;46660.41;5074201;28;20056;-71
2022/07/16 02:24:02;;;;;;;9.27;5.13;;;;;;;-145.18;100.00;46660.41;5073481;28;20028;-71
2022/07/16 02:26:27;;;;;;;8.57;5.17;;;;;;;-145.18;100.00;46660.41;5074409;28;20421;-71
2022/07/16 02:28:53;;;;;;;6.93;4.80;;;;;;;-145.18;100.00;46658.44;5073473;28;20024;-71
2022/07/16 02:31:19;;;;;;;8.17;4.47;;;;;;;-145.18;100.00;46660.41;5074392;28;20532;-71
2022/07/16 02:33:44;;;;;;;10.17;5.93;;;;;;;-145.18;100.00;46660.41;5073386;28;20028;-71
2022/07/16 02:36:10;;;;;;;7.73;4.70;;;;;;;-145.18;100.00;46660.41;5074166;28;20477;-71
2022/07/16 02:38:35;;;;;;;10.90;5.57;;;;;;;-145.18;100.00;46660.41;5073450;28;20032;-71
2022/07/16 02:41:01;;;;;;;7.43;4.43;;;;;;;-145.18;100.00;46660.41;5073950;28;20032;-71
2022/07/16 02:43:26;;;;;;;10.43;5.30;;;;;;;-145.18;100.00;46660.41;5073451;28;20051;-71
2022/07/16 02:45:51;;;;;;;7.43;4.57;;;;;;;-145.18;100.00;46660.41;5073776;28;20031;-71
2022/07/16 02:48:17;;;;;;;11.70;4.87;;;;;;;-145.18;100.00;46660.41;5073260;28;20040;-71
2022/07/16 02:50:43;;;;;;;7.93;5.10;;;;;;;-145.18;100.00;46660.41;5073882;28;20052;-71
2022/07/16 02:53:08;;;;;;;10.63;4.67;;;;;;;-145.18;100.00;46660.41;5073194;28;20028;-71
2022/07/16 02:55:34;;;;;;;9.90;4.67;;;;;;;-145.18;100.00;46660.41;5073432;28;20033;-71
2022/07/16 02:57:59;;;;;;;9.93;5.43;;;;;;;-145.18;100.00;46660.41;5072912;28;20720;-71
2022/07/16 03:00:25;;;;;;;7.50;5.57;;;;;;;-145.18;100.00;46660.41;5073759;28;20082;-71
2022/07/16 03:03:47;;;;;;;13.67;5.37;;;;;;;-145.18;100.00;46660.41;5072762;28;20508;-71
2022/07/16 03:07:36;;;;;;;8.93;5.23;;;;;;;-145.18;100.00;46660.41;5073561;28;20039;-71
2022/07/16 03:11:26;;;;;;;12.53;5.30;;;;;;;-145.18;100.00;46656.50;5073510;28;20395;-71
2022/07/16 03:14:47;;;;;;;;;;;;;;;-145.18;100.00;46658.44;5073043;28;20036;-71
2022/07/16 03:22:07;;;;;;;12.60;5.37;;;;;;;-145.18;100.00;46650.63;5073039;28;20035;-71
2022/07/16 03:25:56;;;;;;;8.77;4.20;;;;;;;-145.18;100.00;46654.53;5073099;28;20389;-72
2022/07/16 03:29:16;;;;;;;;;;;;;;;-145.18;100.00;46652.59;5073063;28;20055;-71
2022/07/16 03:33:09;;;;;;;7.00;4.40;;;;;;;-145.18;100.00;46654.53;5072634;28;20376;-71
2022/07/16 03:37:03;;;;;;;16.70;4.27;;;;;;;-145.18;100.00;46654.53;5052691;28;20025;-71
2022/07/16 03:40:57;;;;;;;12.30;4.80;;;;;;;-145.18;100.00;46658.44;5052732;28;20025;-72
2022/07/16 03:44:51;;;;;;;10.33;4.63;;;;;;;-145.18;100.00;46656.50;5052506;28;20033;-71
2022/07/16 03:52:18;;;;;;;8.50;4.80;;;;;;;-145.18;100.00;46640.88;5052105;28;20171;-71
2022/07/16 03:56:11;;;;;;;13.87;4.87;;;;;;;-145.18;100.00;46654.53;5052379;28;20028;-71
2022/07/16 04:00:05;;;;;;;7.77;4.80;;;;;;;-145.18;100.00;46650.63;5051831;28;20023;-71
2022/07/16 04:07:34;;;;;;;10.23;4.30;;;;;;;-145.18;100.00;46652.59;5069078;28;20093;-71
2022/07/16 06:04:00;;;;;;;8.97;2.03;;;;;;;-145.18;100.00;46617.41;4804342;26;20053;-71
2022/07/16 06:06:26;;;;;;;8.63;2.00;;;;;;;-145.18;100.00;46613.50;5042508;28;20037;-71
2022/07/16 06:08:51;;;;;;;7.20;1.90;;;;;;;-145.18;100.00;46617.41;5048981;28;20056;-71
2022/07/16 06:11:16;;;;;;;5.57;2.20;;;;;;;-145.18;100.00;46619.38;5039059;28;20072;-73
2022/07/16 06:13:42;;;;;;;5.83;1.80;;;;;;;-145.18;100.00;46617.41;5042755;28;20041;-71
2022/07/16 06:16:08;;;;;;;3.53;1.70;;;;;;;-145.18;100.00;46617.41;5049305;28;20033;-71
2022/07/16 06:18:34;;;;;;;4.70;1.60;;;;;;;-145.18;100.00;46619.38;5046494;28;20021;-71
2022/07/16 06:21:00;;;;;;;3.63;1.57;;;;;;;-145.18;100.00;46619.38;5046753;28;20033;-71
2022/07/16 06:23:25;;;;;;;5.43;1.80;;;;;;;-145.18;100.00;46625.22;5035825;28;20040;-73
2022/07/16 06:25:50;;;;;;;5.70;1.63;;;;;;;-145.18;100.00;46625.22;5038979;28;20072;-71
2022/07/16 06:28:16;;;;;;;8.50;1.80;;;;;;;-145.18;100.00;46629.13;5016177;28;20044;-73
2022/07/16 06:30:41;;;;;;;7.97;1.50;;;;;;;-145.18;100.00;46636.94;5046400;28;20114;-73
2022/07/16 06:33:06;;;;;;;18.77;3.33;;;;;;;-145.18;100.00;46640.88;5031262;28;20057;-73
2022/07/16 06:35:32;;;;;;;5.97;1.20;;;;;;;-145.18;100.00;46642.81;5024212;28;20080;-71
2022/07/16 06:37:57;;;;;;;3.93;1.27;;;;;;;-145.18;100.00;46640.88;5049373;28;20481;-73
2022/07/16 06:40:23;;;;;;;5.97;1.77;;;;;;;-145.18;100.00;46642.81;5045166;28;20038;-70
2022/07/16 06:42:48;;;;;;;6.67;1.33;;;;;;;-145.18;100.00;46636.94;5029514;28;20069;-73
2022/07/16 06:45:13;;;;;;;7.73;1.57;;;;;;;-145.18;100.00;46638.91;5030825;28;20052;-71
2022/07/16 06:47:39;;;;;;;7.50;1.63;;;;;;;-145.18;100.00;46638.91;5036796;28;20053;-71
2022/07/16 06:50:05;;;;;;;5.73;1.27;;;;;;;-145.18;100.00;46642.81;5029497;28;20112;-70
2022/07/16 06:52:30;;;;;;;8.57;1.50;;;;;;;-145.18;100.00;46636.94;5029447;28;20222;-71
2022/07/16 06:54:55;;;;;;;10.03;1.23;;;;;;;-145.18;100.00;46646.72;5029504;28;20450;-71
2022/07/16 06:57:22;;;;;;;5.37;1.50;;;;;;;-145.18;100.00;46644.78;5029024;28;20444;-73
2022/07/16 06:59:47;;;;;;;4.70;1.23;;;;;;;-145.18;100.00;46652.59;5032227;28;20148;-71
2022/07/16 07:02:13;;;;;;;4.57;1.60;;;;;;;-145.18;100.00;46650.63;5032708;28;20502;-73
2022/07/16 07:04:39;;;;;;;6.63;1.27;;;;;;;-145.18;100.00;46656.50;5033091;28;20091;-71
2022/07/16 07:07:04;;;;;;;6.10;1.00;;;;;;;-145.18;100.00;46654.53;5032099;28;20038;-71
2022/07/16 07:09:30;;;;;;;4.70;1.00;;;;;;;-145.18;100.00;46646.72;5032670;28;20056;-71
2022/07/16 07:11:55;;;;;;;4.43;1.00;;;;;;;-145.18;100.00;46627.19;5033096;28;20068;-70
2022/07/16 07:14:21;;;;;;;7.50;1.50;;;;;;;-145.18;100.00;46609.59;5032434;28;20064;-69
2022/07/16 07:16:46;;;;;;;3.10;0.83;;;;;;;-145.18;100.00;46621.31;5032973;28;20037;-70
2022/07/16 07:19:11;;;;;;;5.73;1.30;;;;;;;-145.18;100.00;46617.41;5032275;28;20034;-69
2022/07/16 07:21:37;;;;;;;5.90;1.07;;;;;;;-145.18;100.00;46601.78;5032726;28;20041;-70
2022/07/16 07:24:03;;;;;;;3.73;1.03;;;;;;;-145.18;100.00;46578.34;5043643;28;20041;-70
2022/07/16 07:26:28;;;;;;;5.40;1.13;;;;;;;-145.18;100.00;46556.88;5052401;28;20033;-70
2022/07/16 07:28:54;;;;;;;3.33;1.10;;;;;;;-145.18;100.00;46543.19;5052255;28;20041;-70
2022/07/16 07:31:19;;;;;;;4.53;1.30;;;;;;;-145.18;100.00;46527.56;5052775;28;20029;-70
2022/07/16 07:33:44;;;;;;;10.80;1.40;;;;;;;-145.18;100.00;46543.19;5052576;28;20040;-70
2022/07/16 07:36:10;;;;;;;2.83;1.00;;;;;;;-145.18;100.00;46529.53;5052170;28;20043;-71
2022/07/16 07:38:36;;;;;;;4.33;1.10;;;;;;;-145.18;100.00;46527.56;5051677;28;20047;-71
2022/07/16 07:41:02;;;;;;;6.50;1.10;;;;;;;-145.18;100.00;46523.66;5052651;28;20119;-70
2022/07/16 07:43:27;;;;;;;3.77;1.00;;;;;;;-145.18;100.00;46527.56;5051980;28;20029;-71
2022/07/16 07:45:53;;;;;;;9.13;1.40;;;;;;;-145.18;100.00;46535.38;5052482;28;20061;-71
2022/07/16 07:48:18;;;;;;;11.63;2.17;;;;;;;-145.18;100.00;46537.34;5051546;28;20083;-70
2022/07/16 07:50:44;;;;;;;4.97;0.90;;;;;;;-145.18;100.00;46547.09;5052626;28;20049;-71
2022/07/16 07:53:10;;;;;;;5.63;1.10;;;;;;;-145.18;100.00;46539.28;5052234;28;20532;-70
2022/07/16 07:55:36;;;;;;;4.20;1.10;;;;;;;-145.18;100.00;46537.34;5052386;28;20068;-69
2022/07/16 07:58:02;;;;;;;8.00;1.73;;;;;;;-145.18;100.00;46545.16;5052296;28;20029;-70
2022/07/16 08:00:27;;;;;;;4.60;1.17;;;;;;;-145.18;100.00;46541.25;5052154;28;20095;-71
2022/07/16 08:02:54;;;;;;;3.87;1.03;;;;;;;-145.18;100.00;46547.09;5036436;28;20136;-72
2022/07/16 08:05:20;;;;;;;2.87;0.60;;;;;;;-145.18;100.00;46562.72;5032012;28;20065;-72
2022/07/16 08:07:46;;;;;;;5.30;0.90;;;;;;;-145.18;100.00;46543.19;5032048;28;20049;-73
2022/07/16 08:10:12;;;;;;;6.50;1.50;;;;;;;-145.18;100.00;46554.91;5013471;28;20029;-72
2022/07/16 08:12:38;;;;;;;7.30;0.90;;;;;;;-145.18;100.00;46558.81;5031945;28;20054;-72
2022/07/16 08:15:05;;;;;;;6.33;0.83;;;;;;;-145.18;100.00;46545.16;5032216;28;20033;-71
2022/07/16 08:17:30;;;;;;;13.17;2.50;;;;;;;-145.18;100.00;46554.91;5032080;28;20041;-72
2022/07/16 08:19:56;;;;;;;6.30;1.50;;;;;;;-145.18;100.00;46556.88;5031885;28;20111;-71
2022/07/16 08:22:21;;;;;;;3.93;1.00;;;;;;;-145.18;100.00;46560.78;5031647;28;20025;-71
2022/07/16 08:27:31;;;;;;;3.43;1.53;;;;;;;-145.18;100.00;46539.28;5051805;28;20620;-70
2022/07/16 08:29:56;;;;;;;4.73;1.13;;;;;;;-145.18;100.00;46551.00;5051442;28;20116;-71
2022/07/16 08:32:21;;;;;;;5.97;1.30;;;;;;;-145.18;100.00;46543.19;5051264;28;20393;-70
2022/07/16 08:34:47;;;;;;;7.83;1.33;;;;;;;-145.18;100.00;46539.28;5051230;28;20060;-71
2022/07/16 08:37:12;;;;;;;9.07;1.50;;;;;;;-145.18;100.00;46549.06;5051319;28;20032;-71
2022/07/16 08:39:42;;;;;;;5.23;1.07;;;;;;;-145.18;100.00;46554.91;5050736;28;20047;-71
2022/07/16 08:42:10;;;;;;;5.17;1.73;;;;;;;-145.18;100.00;46558.81;5051420;28;20036;-71
2022/07/16 08:44:38;;;;;;;5.00;1.30;;;;;;;-145.18;100.00;46551.00;5050911;28;20032;-71
2022/07/16 08:47:03;;;;;;;5.57;1.37;;;;;;;-145.18;100.00;46554.91;5051500;28;20025;-71
2022/07/16 08:49:29;;;;;;;3.70;1.20;;;;;;;-145.18;100.00;46545.16;5050520;28;20108;-71
2022/07/16 08:51:59;;;;;;;4.83;1.27;;;;;;;-145.18;100.00;46562.72;5051446;28;20051;-71
2022/07/16 08:54:27;;;;;;;7.40;2.10;;;;;;;-145.18;100.00;46543.19;5050705;28;20157;-71
2022/07/16 08:56:53;;;;;;;2.90;1.10;;;;;;;-145.18;100.00;46570.53;5051313;28;20033;-71
2022/07/16 08:59:18;;;;;;;5.17;1.17;;;;;;;-145.18;100.00;46576.41;5050663;28;20504;-71
2022/07/16 09:01:43;;;;;;;2.83;1.10;;;;;;;-145.18;100.00;46584.22;5050900;28;20633;-71
2022/07/16 09:04:09;;;;;;;4.43;1.40;;;;;;;-145.18;100.00;46597.88;5050481;28;20041;-71
2022/07/16 09:06:34;;;;;;;5.17;1.33;;;;;;;-145.18;100.00;46617.41;5051166;28;20036;-71
2022/07/16 09:09:00;;;;;;;4.20;1.20;;;;;;;-145.18;100.00;46593.97;5050164;28;20029;-71
2022/07/16 09:11:35;;;;;;;4.23;1.30;;;;;;;-145.18;100.00;46629.13;5047828;28;20116;-71
2022/07/16 09:14:03;;;;;;;5.47;1.40;;;;;;;-145.18;100.00;46656.50;5049894;28;20032;-71
2022/07/16 09:16:31;;;;;;;4.43;0.97;;;;;;;-145.18;100.00;46730.72;5050031;28;20100;-71
2022/07/16 09:19:02;;;;;;;3.53;1.10;;;;;;;-145.18;100.00;46627.19;5049738;28;20047;-71
2022/07/16 09:21:28;;;;;;;6.67;1.50;;;;;;;-145.18;100.00;46580.31;5049137;28;20033;-71
2022/07/16 09:23:53;;;;;;;5.07;1.20;;;;;;;-145.18;100.00;46888.94;5021482;28;20394;-71
2022/07/16 09:26:18;;;;;;;4.57;1.60;;;;;;;-145.18;100.00;46658.44;5046431;28;20056;-71
2022/07/16 09:28:50;;;;;;;4.90;1.30;;;;;;;-145.18;100.00;46584.22;5049433;28;20261;-71
2022/07/16 09:31:54;;;;;;;9.07;1.50;;;;;;;-145.18;100.00;46914.34;5049070;28;20049;-71
2022/07/16 09:34:20;;;;;;;5.83;1.33;;;;;;;-145.18;100.00;46769.78;4967744;28;20492;-71
2022/07/16 09:36:58;;;;;;;5.97;1.20;;;;;;;-145.18;100.00;46691.66;4966329;28;20110;-71
2022/07/16 09:39:24;;;;;;;5.10;1.30;;;;;;;-145.18;100.00;47201.50;5010598;28;20669;-71
2022/07/16 09:41:49;;;;;;;5.47;1.30;;;;;;;-145.18;100.00;47197.59;5050504;28;20059;-71
2022/07/16 09:44:20;;;;;;;3.47;1.40;;;;;;;-145.18;100.00;47076.47;5031076;28;20080;-71
2022/07/16 09:47:08;;;;;;;3.80;1.33;;;;;;;-145.18;100.00;47144.84;5050297;28;20067;-71
2022/07/16 09:49:36;;;;;;;6.03;1.13;;;;;;;-145.18;100.00;46965.13;5050105;28;20067;-72
2022/07/16 09:52:03;;;;;;;2.97;1.30;;;;;;;-145.18;100.00;47209.31;5047231;28;20029;-71
2022/07/16 09:54:37;;;;;;;7.40;1.50;;;;;;;-145.18;100.00;47189.78;5048916;28;20579;-71
2022/07/16 09:57:11;;;;;;;5.00;1.40;;;;;;;-145.18;100.00;47191.75;5048805;28;20033;-74
2022/07/16 09:59:38;;;;;;;8.00;1.50;;;;;;;-145.18;100.00;47152.66;5049760;28;20064;-71
2022/07/16 10:02:04;;;;;;;2.83;1.10;;;;;;;-145.18;100.00;47097.97;5044726;28;20053;-72
2022/07/16 10:04:29;;;;;;;5.10;1.27;;;;;;;-145.18;100.00;47105.78;5049426;28;20036;-73
2022/07/16 10:06:55;;;;;;;3.40;1.40;;;;;;;-145.18;100.00;47096.00;5050247;28;20037;-73
2022/07/16 10:09:21;;;;;;;6.43;1.47;;;;;;;-145.18;100.00;47086.25;5049093;28;20037;-73
2022/07/16 10:11:47;;;;;;;6.13;2.20;;;;;;;-145.18;100.00;47113.59;5050332;28;20116;-73
2022/07/16 10:14:13;;;;;;;5.63;1.30;;;;;;;-145.18;100.00;47101.88;5049879;28;20123;-71
2022/07/16 10:16:43;;;;;;;3.10;1.37;;;;;;;-145.18;100.00;47064.75;5049833;28;20610;-73
2022/07/16 10:19:09;;;;;;;5.77;1.30;;;;;;;-145.18;100.00;47068.66;5045117;28;20036;-73
2022/07/16 10:21:35;;;;;;;3.30;1.03;;;;;;;-145.18;100.00;47131.19;5029792;28;20038;-73
2022/07/16 10:24:09;;;;;;;2.37;1.20;;;;;;;-145.18;100.00;47181.97;5021891;28;20037;-73
2022/07/16 10:26:35;;;;;;;3.27;1.20;;;;;;;-145.18;100.00;47201.50;5048823;28;20076;-73
2022/07/16 10:29:03;;;;;;;2.60;1.00;;;;;;;-145.18;100.00;47113.59;5049561;28;20609;-73
2022/07/16 10:31:40;;;;;;;2.23;1.10;;;;;;;-145.18;100.00;47080.38;5049501;28;20033;-73
2022/07/16 10:34:15;;;;;;;3.00;1.20;;;;;;;-145.18;100.00;47064.75;5050731;28;20036;-73
2022/07/16 10:36:43;;;;;;;4.53;1.10;;;;;;;-145.18;100.00;47047.19;5053667;28;20037;-73
2022/07/16 10:39:12;;;;;;;5.27;1.43;;;;;;;-145.18;100.00;47043.28;5053101;28;20595;-73
2022/07/16 10:41:48;;;;;;;5.97;1.13;;;;;;;-145.18;100.00;47047.19;5053851;28;20044;-73
2022/07/16 10:44:13;;;;;;;5.20;1.25;;;;;;;-145.18;100.00;47056.94;5053064;28;20045;-73
2022/07/16 10:46:53;;;;;;;4.60;1.10;;;;;;;-145.18;100.00;47096.00;5051224;28;20108;-74
2022/07/16 10:49:20;;;;;;;3.70;1.37;;;;;;;-145.18;100.00;47097.97;5045543;28;20033;-71
2022/07/16 10:52:03;;;;;;;5.33;1.10;;;;;;;-145.18;100.00;47097.97;5043719;28;20032;-71
2022/07/16 10:54:39;;;;;;;3.53;1.77;;;;;;;-145.18;100.00;47049.13;5040556;28;20080;-71
2022/07/16 10:57:08;;;;;;;5.57;1.40;;;;;;;-145.18;100.00;47047.19;5047064;28;20028;-73
2022/07/16 10:59:43;;;;;;;5.20;1.40;;;;;;;-145.18;100.00;47039.34;5052200;28;20029;-71
2022/07/16 11:02:10;;;;;;;2.90;1.00;;;;;;;-145.18;100.00;47043.28;5052766;28;20037;-73
2022/07/16 11:04:45;;;;;;;3.20;1.37;;;;;;;-145.18;100.00;47031.53;5052384;28;20583;-73
2022/07/16 11:07:19;;;;;;;5.38;1.33;;;;;;;-145.18;100.00;47074.53;5035105;28;20027;-74
2022/07/16 11:09:48;;;;;;;2.43;0.90;;;;;;;-145.18;100.00;47111.66;5052744;28;20033;-73
2022/07/16 11:12:16;;;;;;;3.53;1.23;;;;;;;-145.18;100.00;47072.56;5052873;28;20111;-73
2022/07/16 11:14:45;;;;;;;5.97;1.30;;;;;;;-145.18;100.00;47099.91;5052520;28;20087;-74
2022/07/16 11:17:11;;;;;;;7.73;1.90;;;;;;;-145.18;100.00;47109.69;5042939;28;20029;-73
2022/07/16 11:19:42;;;;;;;3.73;1.50;;;;;;;-145.18;100.00;47109.69;5031933;28;20129;-73
2022/07/16 11:22:09;;;;;;;5.70;1.30;;;;;;;-145.18;100.00;47084.28;5039780;28;20080;-74
2022/07/16 11:24:34;;;;;;;4.83;1.20;;;;;;;-145.18;100.00;47092.09;5051313;28;20032;-73
2022/07/16 11:27:01;;;;;;;3.13;1.33;;;;;;;-145.18;100.00;47039.34;5052933;28;20028;-74
2022/07/16 11:29:28;;;;;;;3.73;1.63;;;;;;;-145.18;100.00;47049.13;5051844;28;20044;-74
2022/07/16 11:31:55;;;;;;;4.93;1.00;;;;;;;-145.18;100.00;47039.34;5052731;28;20040;-74
2022/07/16 11:34:22;;;;;;;3.13;1.03;;;;;;;-145.18;100.00;47021.78;5051230;28;20048;-74
2022/07/16 11:36:51;;;;;;;2.50;1.27;;;;;;;-145.18;100.00;47027.63;5052563;28;20044;-74
2022/07/16 11:39:22;;;;;;;4.80;1.60;;;;;;;-145.18;100.00;47027.63;5051899;28;20044;-74
2022/07/16 11:41:49;;;;;;;4.30;1.40;;;;;;;-145.18;100.00;47043.28;5052350;28;20056;-74
2022/07/16 11:44:22;;;;;;;3.07;1.23;;;;;;;-145.18;100.00;47023.72;5036150;28;20044;-74
2022/07/16 11:46:56;;;;;;;4.33;1.47;;;;;;;-145.18;100.00;47039.34;5031274;28;20057;-71
2022/07/16 11:49:52;;;;;;;3.97;1.40;;;;;;;-145.18;100.00;47037.41;5031658;28;20438;-71
2022/07/16 11:52:22;;;;;;;;;;;;;;;-145.18;100.00;47019.81;5028624;28;20599;-72
2022/07/16 11:54:49;;;;;;;5.40;1.40;;;;;;;-145.18;100.00;47092.09;5031624;28;19923;-74
2022/07/16 11:57:14;;;;;;;3.40;1.27;;;;;;;-145.18;100.00;47055.00;5032308;28;20560;-74
2022/07/16 11:59:47;;;;;;;5.27;1.40;;;;;;;-145.18;100.00;47039.34;5043767;28;20045;-74
2022/07/16 12:02:14;;;;;;;4.57;1.83;;;;;;;-145.18;100.00;47062.81;5033595;28;20575;-73
2022/07/16 12:04:44;;;;;;;5.80;1.53;;;;;;;-145.18;100.00;47029.59;5033870;28;20033;-74
2022/07/16 12:07:17;;;;;;;4.33;1.60;;;;;;;-145.18;100.00;47029.59;5034189;28;20037;-74
2022/07/16 12:09:44;;;;;;;7.07;1.60;;;;;;;-145.18;100.00;47035.44;5051813;28;20029;-73
2022/07/16 12:12:14;;;;;;;4.60;1.87;;;;;;;-145.18;100.00;47023.72;5051894;28;20104;-74
2022/07/16 12:14:47;;;;;;;4.67;1.30;;;;;;;-145.18;100.00;47008.09;5051530;28;20040;-74
2022/07/16 12:17:26;;;;;;;5.10;1.30;;;;;;;-145.18;100.00;47027.63;5050894;28;20036;-72
2022/07/16 12:20:23;;;;;;;3.30;1.40;;;;;;;-145.18;100.00;47027.63;5051595;28;20060;-72
2022/07/16 12:22:53;;;;;;;4.40;1.58;;;;;;;-145.18;100.00;47008.09;5051704;28;20037;-75
2022/07/16 12:25:27;;;;;;;4.87;1.50;;;;;;;-145.18;100.00;47012.00;5050254;28;20033;-75
2022/07/16 12:28:17;;;;;;;1.83;1.13;;;;;;;-145.18;100.00;47025.69;5044383;28;20036;-74
2022/07/16 12:30:45;;;;;;;5.03;1.30;;;;;;;-145.18;100.00;47029.59;5049078;28;20051;-74
2022/07/16 12:33:22;;;;;;;5.13;1.70;;;;;;;-145.18;100.00;47019.81;5039036;28;20533;-74
2022/07/16 12:36:03;;;;;;;4.57;1.30;;;;;;;-145.18;100.00;47025.69;5039344;28;20029;-73
2022/07/16 12:38:54;;;;;;;12.93;2.37;;;;;;;-145.18;100.00;47084.28;5042359;28;20053;-74
2022/07/16 12:41:26;;;;;;;5.40;1.40;;;;;;;-145.18;100.00;47066.72;5042661;28;20061;-74
2022/07/16 12:44:09;;;;;;;4.00;1.70;;;;;;;-145.18;100.00;47041.31;5048246;28;20025;-73
2022/07/16 12:46:46;;;;;;;6.23;2.20;;;;;;;-145.18;100.00;47029.59;5042066;28;20551;-74
2022/07/16 12:49:14;;;;;;;6.00;2.03;;;;;;;-145.18;100.00;47070.63;5040900;28;20034;-74
2022/07/16 12:51:48;;;;;;;6.87;2.33;;;;;;;-145.18;100.00;47031.53;5034549;28;20478;-73
2022/07/16 12:54:15;;;;;;;3.60;1.90;;;;;;;-145.18;100.00;47035.44;5050654;28;20021;-74
2022/07/16 12:59:33;;;;;;;7.50;2.00;;;;;;;-145.18;100.00;47012.00;5011093;28;20044;-72
2022/07/16 13:02:00;;;;;;;4.63;1.80;;;;;;;-145.18;100.00;47023.72;5051028;28;20036;-72
2022/07/16 13:04:26;;;;;;;6.97;1.73;;;;;;;-145.18;100.00;47013.97;5050106;28;20488;-72
2022/07/16 13:06:52;;;;;;;7.57;2.27;;;;;;;-145.18;100.00;47017.88;5050997;28;20029;-75
2022/07/16 13:09:18;;;;;;;7.50;2.00;;;;;;;-145.18;100.00;47021.78;5043157;28;20393;-74
2022/07/16 13:11:45;;;;;;;4.77;2.00;;;;;;;-145.18;100.00;47019.81;5050879;28;20033;-74
2022/07/16 13:14:11;;;;;;;4.60;2.30;;;;;;;-145.18;100.00;47074.53;5031880;28;20059;-73
2022/07/16 13:16:37;;;;;;;3.97;2.10;;;;;;;-145.18;100.00;47027.63;5034117;28;20032;-74
2022/07/16 13:19:04;;;;;;;7.10;2.30;;;;;;;-145.18;100.00;47033.50;5030244;28;20036;-74
2022/07/16 13:21:31;;;;;;;6.13;1.53;;;;;;;-145.18;100.00;47035.44;5035934;28;20608;-74
2022/07/16 13:23:57;;;;;;;5.40;2.03;;;;;;;-145.18;100.00;47027.63;5040395;28;20042;-74
2022/07/16 13:26:26;;;;;;;4.80;1.50;;;;;;;-145.18;100.00;47043.28;5030414;28;20454;-74
2022/07/16 13:28:51;;;;;;;5.90;2.20;;;;;;;-145.18;100.00;47027.63;5030664;28;20041;-74
2022/07/16 13:31:18;;;;;;;5.53;1.90;;;;;;;-145.18;100.00;47013.97;5030459;28;20029;-75
2022/07/16 13:33:45;;;;;;;6.13;2.00;;;;;;;-145.18;100.00;47041.31;5030268;28;20120;-74
2022/07/16 13:36:12;;;;;;;4.87;2.13;;;;;;;-145.18;100.00;47027.63;5030716;28;20049;-75
2022/07/16 13:38:40;;;;;;;5.33;1.57;;;;;;;-145.18;100.00;47029.59;5030232;28;20453;-75
2022/07/16 13:41:07;;;;;;;7.50;1.80;;;;;;;-145.18;100.00;47031.53;5035300;28;20516;-75
2022/07/16 13:43:33;;;;;;;8.20;1.57;;;;;;;-145.18;100.00;47031.53;5044015;28;20084;-75